Fort Lauderdale, FL

6:24 PM EDT on August 28, 2015 (GMT -0400)
APRSWXNET | | Change Station
CLOSE
Current Station
Personal Weather Station
Location: Fort Lauderdale, FL
Elevation: 6 ft
Nearby Weather Stations

Elev 6 ft 26.11 °N, 80.12 °W | Updated 18 minutes ago

Mostly Cloudy
Mostly Cloudy
84 °F
Feels Like 93 °F
N
0
Wind Variable Wind from SSW
Gusts 4.0 mph

Today
High -- | Low -- °F
--% Chance of Precip.
Yesterday
High -- | Low -- °F
Precip. -- in
6:58 AM 7:44 PM
Waxing Gibbous, 99% visible
Pressure 29.98 in
Visibility 10.0 miles
Clouds Few 1900 ft
Scattered Clouds 2500 ft
Mostly Cloudy 5000 ft
Mostly Cloudy 25000 ft
Heat Index 93 °F
Dew Point 76 °F
Humidity 78%
Rainfall in
Snow Depth Not available.
UV 1 out of 12
Pollen 2.70 out of 12
Air Quality Not available.
Flu Activity Not available.
SPECI KFLL 282207Z 10010KT 10SM FEW019 SCT025 BKN050 BKN250 29/24 A2998 RMK AO2 T02890244
Pressure 29.98 in
Visibility 10.0 miles
Clouds Few 1900 ft
Scattered Clouds 2500 ft
Mostly Cloudy 5000 ft
Mostly Cloudy 25000 ft
Heat Index 93 °F
Dew Point 76 °F
Humidity 78%
Rainfall in
Snow Depth Not available.
UV 1 out of 12
Pollen 2.70 out of 12
Air Quality Not available.
Flu Activity Not available.
SPECI KFLL 282207Z 10010KT 10SM FEW019 SCT025 BKN050 BKN250 29/24 A2998 RMK AO2 T02890244
Erika has become very unorganized in the face of strong wind shear in the eastern Caribbean Sea. The storm will pass directly over mountainous Hispaniola today, likely weakening it further. If the storm remains intact, it could reach an area favorable for strengthening before moving onto Florida by early next week. Follow the live blog

10-Day Weather Forecast

×

Almanac

Astronomy

Aug. 28, 2015 Rise Set
Actual Time
Civil Twilight
Nautical Twilight
Astronomical Twilight
Moon
Length of Visible Light
Length of Day
Tomorrow will be .
, % of the Moon is Illuminated

Today's Extremes

State Highs State Lows

Community

WunderPhotos

Upload Photos

1,850,515 photos uploaded!

WunderBlogs® & News

Nearby

Air Quality

  Air Quality AQ Index Pollutant
Not available.

Snow Depth

Station Depth Elevation

Earthquake Activity

City Distance Mag. Time & Date
Minimum magnitude displayed is 2.5.

Coastal Water Temperatures

Place Temperature

Stations

Nearby Weather Stations

Station Location Temp. Windchill Dew Point Humidity Wind Precip. Elev Updated Type